sensor_id;sensor_type;location;lat;lon;timestamp;pressure;altitude;pressure_sealevel;temperature;humidity
55373;BME280;41249;47.838;16.490;2023-04-09T00:01:32;99952.09;;;-0.51;80.87
55373;BME280;41249;47.838;16.490;2023-04-09T00:03:59;99952.91;;;-0.51;81.00
55373;BME280;41249;47.838;16.490;2023-04-09T00:06:26;99949.34;;;-0.51;81.15
55373;BME280;41249;47.838;16.490;2023-04-09T00:08:52;99952.41;;;-0.53;80.86
55373;BME280;41249;47.838;16.490;2023-04-09T00:11:19;99944.03;;;-0.56;80.82
55373;BME280;41249;47.838;16.490;2023-04-09T00:13:47;99948.06;;;-0.54;80.88
55373;BME280;41249;47.838;16.490;2023-04-09T00:16:13;99952.09;;;-0.51;81.02
55373;BME280;41249;47.838;16.490;2023-04-09T00:18:40;99946.22;;;-0.45;80.74
55373;BME280;41249;47.838;16.490;2023-04-09T00:21:07;99941.94;;;-0.37;80.89
55373;BME280;41249;47.838;16.490;2023-04-09T00:23:34;99945.53;;;-0.28;81.20
55373;BME280;41249;47.838;16.490;2023-04-09T00:26:01;99947.16;;;-0.27;81.27
55373;BME280;41249;47.838;16.490;2023-04-09T00:28:28;99944.56;;;-0.32;81.09
55373;BME280;41249;47.838;16.490;2023-04-09T00:30:54;99944.72;;;-0.28;80.71
55373;BME280;41249;47.838;16.490;2023-04-09T00:33:21;99946.03;;;-0.26;80.15
55373;BME280;41249;47.838;16.490;2023-04-09T00:35:47;99942.31;;;-0.30;80.28
55373;BME280;41249;47.838;16.490;2023-04-09T00:38:14;99949.00;;;-0.36;80.76
55373;BME280;41249;47.838;16.490;2023-04-09T00:40:41;99949.63;;;-0.39;80.92
55373;BME280;41249;47.838;16.490;2023-04-09T00:43:07;99947.53;;;-0.42;80.85
55373;BME280;41249;47.838;16.490;2023-04-09T00:45:34;99957.13;;;-0.45;81.11
55373;BME280;41249;47.838;16.490;2023-04-09T00:48:01;99947.81;;;-0.44;81.21
55373;BME280;41249;47.838;16.490;2023-04-09T00:50:28;99951.47;;;-0.48;81.12
55373;BME280;41249;47.838;16.490;2023-04-09T00:52:55;99950.25;;;-0.42;80.94
55373;BME280;41249;47.838;16.490;2023-04-09T00:55:22;99953.91;;;-0.47;80.82
55373;BME280;41249;47.838;16.490;2023-04-09T00:57:49;99954.03;;;-0.52;80.89
55373;BME280;41249;47.838;16.490;2023-04-09T01:00:15;99954.94;;;-0.56;81.41
55373;BME280;41249;47.838;16.490;2023-04-09T01:02:42;99952.09;;;-0.51;81.43
55373;BME280;41249;47.838;16.490;2023-04-09T01:05:10;99940.69;;;-0.53;81.43
55373;BME280;41249;47.838;16.490;2023-04-09T01:11:09;99946.34;;;-0.50;81.84
55373;BME280;41249;47.838;16.490;2023-04-09T01:13:20;99947.16;;;-0.49;81.31
55373;BME280;41249;47.838;16.490;2023-04-09T01:15:51;99936.75;;;-0.47;82.99
55373;BME280;41249;47.838;16.490;2023-04-09T01:18:28;99943.00;;;-0.47;82.56
55373;BME280;41249;47.838;16.490;2023-04-09T01:21:29;99956.56;;;-0.55;83.14
55373;BME280;41249;47.838;16.490;2023-04-09T01:24:20;99950.59;;;-0.57;82.46
55373;BME280;41249;47.838;16.490;2023-04-09T01:26:58;99945.03;;;-0.52;81.93
55373;BME280;41249;47.838;16.490;2023-04-09T01:29:31;99939.75;;;-0.49;82.21
55373;BME280;41249;47.838;16.490;2023-04-09T01:32:01;99950.91;;;-0.59;81.83
55373;BME280;41249;47.838;16.490;2023-04-09T01:34:29;99943.03;;;-0.60;81.56
55373;BME280;41249;47.838;16.490;2023-04-09T01:36:58;99940.63;;;-0.62;81.87
55373;BME280;41249;47.838;16.490;2023-04-09T01:39:26;99946.31;;;-0.72;81.09
55373;BME280;41249;47.838;16.490;2023-04-09T01:41:54;99946.59;;;-0.73;81.07
55373;BME280;41249;47.838;16.490;2023-04-09T01:44:22;99945.13;;;-0.79;81.36
55373;BME280;41249;47.838;16.490;2023-04-09T01:46:51;99940.38;;;-0.87;81.33
55373;BME280;41249;47.838;16.490;2023-04-09T01:49:20;99939.41;;;-0.91;81.78
55373;BME280;41249;47.838;16.490;2023-04-09T01:51:47;99943.69;;;-0.77;81.30
55373;BME280;41249;47.838;16.490;2023-04-09T01:54:15;99945.94;;;-0.79;81.32
55373;BME280;41249;47.838;16.490;2023-04-09T01:56:43;99949.94;;;-0.76;81.22
55373;BME280;41249;47.838;16.490;2023-04-09T01:59:10;99943.88;;;-0.73;80.74
55373;BME280;41249;47.838;16.490;2023-04-09T02:01:45;99939.66;;;-0.79;80.97
55373;BME280;41249;47.838;16.490;2023-04-09T02:04:25;99951.25;;;-0.74;81.00
55373;BME280;41249;47.838;16.490;2023-04-09T02:09:30;99950.97;;;-0.72;80.60
55373;BME280;41249;47.838;16.490;2023-04-09T02:11:58;99938.63;;;-0.70;80.47
55373;BME280;41249;47.838;16.490;2023-04-09T02:14:30;99950.97;;;-0.72;80.24
55373;BME280;41249;47.838;16.490;2023-04-09T02:16:59;99943.16;;;-0.65;80.46
55373;BME280;41249;47.838;16.490;2023-04-09T02:19:39;99935.09;;;-0.70;80.96
55373;BME280;41249;47.838;16.490;2023-04-09T02:22:06;99952.56;;;-0.71;80.76
55373;BME280;41249;47.838;16.490;2023-04-09T02:24:32;99945.72;;;-0.82;81.57
55373;BME280;41249;47.838;16.490;2023-04-09T02:26:59;99948.78;;;-0.84;81.66
55373;BME280;41249;47.838;16.490;2023-04-09T02:29:25;99945.22;;;-0.84;81.08
55373;BME280;41249;47.838;16.490;2023-04-09T02:31:52;99942.88;;;-0.77;81.03
55373;BME280;41249;47.838;16.490;2023-04-09T02:34:19;99945.13;;;-0.79;81.18
55373;BME280;41249;47.838;16.490;2023-04-09T02:36:45;99946.09;;;-0.75;80.85
55373;BME280;41249;47.838;16.490;2023-04-09T02:39:12;99946.22;;;-0.80;81.54
55373;BME280;41249;47.838;16.490;2023-04-09T02:41:39;99945.13;;;-0.79;81.15
55373;BME280;41249;47.838;16.490;2023-04-09T02:44:05;99944.22;;;-0.88;80.96
55373;BME280;41249;47.838;16.490;2023-04-09T02:46:32;99934.63;;;-0.86;81.28
55373;BME280;41249;47.838;16.490;2023-04-09T02:48:59;99929.00;;;-0.89;81.33
55373;BME280;41249;47.838;16.490;2023-04-09T02:51:26;99933.44;;;-0.93;81.90
55373;BME280;41249;47.838;16.490;2023-04-09T02:53:53;99932.06;;;-1.04;81.85
55373;BME280;41249;47.838;16.490;2023-04-09T02:56:19;99934.28;;;-1.06;82.46
55373;BME280;41249;47.838;16.490;2023-04-09T02:58:46;99933.47;;;-1.07;82.44
55373;BME280;41249;47.838;16.490;2023-04-09T03:01:14;99934.06;;;-0.96;82.17
55373;BME280;41249;47.838;16.490;2023-04-09T03:03:41;99928.84;;;-1.06;81.68
55373;BME280;41249;47.838;16.490;2023-04-09T03:06:08;99932.94;;;-0.95;81.79
55373;BME280;41249;47.838;16.490;2023-04-09T03:08:35;99935.47;;;-0.99;81.16
55373;BME280;41249;47.838;16.490;2023-04-09T03:11:02;99930.44;;;-1.05;81.74
55373;BME280;41249;47.838;16.490;2023-04-09T03:13:28;99932.44;;;-1.11;81.37
55373;BME280;41249;47.838;16.490;2023-04-09T03:15:55;99928.50;;;-1.05;81.43
55373;BME280;41249;47.838;16.490;2023-04-09T03:18:21;99927.69;;;-1.05;81.35
55373;BME280;41249;47.838;16.490;2023-04-09T03:20:48;99930.81;;;-0.98;81.42
55373;BME280;41249;47.838;16.490;2023-04-09T03:23:15;99930.03;;;-0.99;81.06
55373;BME280;41249;47.838;16.490;2023-04-09T03:25:41;99930.09;;;-0.90;80.98
55373;BME280;41249;47.838;16.490;2023-04-09T03:28:08;99920.50;;;-0.88;80.74
55373;BME280;41249;47.838;16.490;2023-04-09T03:30:34;99923.44;;;-0.84;80.83
55373;BME280;41249;47.838;16.490;2023-04-09T03:33:01;99929.16;;;-0.86;80.84
55373;BME280;41249;47.838;16.490;2023-04-09T03:35:27;99925.13;;;-0.88;80.94
55373;BME280;41249;47.838;16.490;2023-04-09T03:37:54;99930.31;;;-0.87;80.53
55373;BME280;41249;47.838;16.490;2023-04-09T03:40:21;99921.19;;;-0.82;80.74
55373;BME280;41249;47.838;16.490;2023-04-09T03:42:47;99932.59;;;-0.80;80.85
55373;BME280;41249;47.838;16.490;2023-04-09T03:45:14;99922.69;;;-0.76;80.46
55373;BME280;41249;47.838;16.490;2023-04-09T03:47:40;99933.09;;;-0.78;80.08
55373;BME280;41249;47.838;16.490;2023-04-09T03:50:07;99929.75;;;-0.75;80.75
55373;BME280;41249;47.838;16.490;2023-04-09T03:52:34;99936.03;;;-0.75;80.31
55373;BME280;41249;47.838;16.490;2023-04-09T03:55:02;99931.41;;;-0.88;80.60
55373;BME280;41249;47.838;16.490;2023-04-09T03:57:29;99937.47;;;-0.91;80.69
55373;BME280;41249;47.838;16.490;2023-04-09T03:59:56;99935.47;;;-0.99;80.81
55373;BME280;41249;47.838;16.490;2023-04-09T04:02:22;99942.25;;;-1.10;81.89
55373;BME280;41249;47.838;16.490;2023-04-09T04:04:52;99938.72;;;-1.11;81.55
55373;BME280;41249;47.838;16.490;2023-04-09T04:07:19;99933.47;;;-1.07;81.71
55373;BME280;41249;47.838;16.490;2023-04-09T04:09:45;99942.91;;;-0.91;81.38
55373;BME280;41249;47.838;16.490;2023-04-09T04:12:12;99937.22;;;-0.81;81.49
55373;BME280;41249;47.838;16.490;2023-04-09T04:14:38;99939.78;;;-0.84;81.01
55373;BME280;41249;47.838;16.490;2023-04-09T04:17:05;99931.94;;;-0.99;81.23
55373;BME280;41249;47.838;16.490;2023-04-09T04:19:31;99936.50;;;-1.22;81.90
55373;BME280;41249;47.838;16.490;2023-04-09T04:21:58;99937.31;;;-1.35;82.72
55373;BME280;41249;47.838;16.490;2023-04-09T04:24:25;99942.06;;;-1.41;83.23
55373;BME280;41249;47.838;16.490;2023-04-09T04:26:51;99941.38;;;-1.46;83.90
55373;BME280;41249;47.838;16.490;2023-04-09T04:29:18;99945.41;;;-1.44;83.38
55373;BME280;41249;47.838;16.490;2023-04-09T04:31:44;99949.31;;;-1.50;83.98
55373;BME280;41249;47.838;16.490;2023-04-09T04:34:11;99947.69;;;-1.51;84.22
55373;BME280;41249;47.838;16.490;2023-04-09T04:36:37;99952.97;;;-1.54;84.07
55373;BME280;41249;47.838;16.490;2023-04-09T04:39:04;99954.88;;;-1.55;83.86
55373;BME280;41249;47.838;16.490;2023-04-09T04:41:31;99952.75;;;-1.58;84.30
55373;BME280;41249;47.838;16.490;2023-04-09T04:43:57;99963.34;;;-1.56;84.39
55373;BME280;41249;47.838;16.490;2023-04-09T04:46:24;99957.28;;;-1.53;84.87
55373;BME280;41249;47.838;16.490;2023-04-09T04:48:51;99962.72;;;-1.53;84.25
55373;BME280;41249;47.838;16.490;2023-04-09T04:51:18;99960.22;;;-1.50;84.47
55373;BME280;41249;47.838;16.490;2023-04-09T04:53:44;99957.00;;;-1.52;84.25
55373;BME280;41249;47.838;16.490;2023-04-09T04:56:14;99962.13;;;-1.50;84.29
55373;BME280;41249;47.838;16.490;2023-04-09T04:58:41;99956.41;;;-1.49;84.41
55373;BME280;41249;47.838;16.490;2023-04-09T05:01:08;99965.06;;;-1.47;84.63
55373;BME280;41249;47.838;16.490;2023-04-09T05:03:35;99961.75;;;-1.44;84.06
55373;BME280;41249;47.838;16.490;2023-04-09T05:06:02;99964.16;;;-1.42;83.66
55373;BME280;41249;47.838;16.490;2023-04-09T05:08:28;99976.84;;;-1.38;84.17
55373;BME280;41249;47.838;16.490;2023-04-09T05:10:55;99963.75;;;-1.36;83.99
55373;BME280;41249;47.838;16.490;2023-04-09T05:13:22;99958.28;;;-1.36;83.77
55373;BME280;41249;47.838;16.490;2023-04-09T05:15:49;99960.13;;;-1.31;83.32
55373;BME280;41249;47.838;16.490;2023-04-09T05:18:16;99958.72;;;-1.29;83.16
55373;BME280;41249;47.838;16.490;2023-04-09T05:20:42;99961.94;;;-1.27;83.51
55373;BME280;41249;47.838;16.490;2023-04-09T05:23:09;99967.28;;;-1.22;83.21
55373;BME280;41249;47.838;16.490;2023-04-09T05:25:35;99973.03;;;-1.23;83.50
55373;BME280;41249;47.838;16.490;2023-04-09T05:28:02;99971.44;;;-1.24;83.80
55373;BME280;41249;47.838;16.490;2023-04-09T05:30:29;99977.66;;;-1.24;83.00
55373;BME280;41249;47.838;16.490;2023-04-09T05:32:55;99983.63;;;-1.22;83.61
55373;BME280;41249;47.838;16.490;2023-04-09T05:35:22;99985.81;;;-1.24;83.64
55373;BME280;41249;47.838;16.490;2023-04-09T05:37:48;99995.31;;;-1.21;83.53
55373;BME280;41249;47.838;16.490;2023-04-09T05:40:15;99987.94;;;-1.21;83.70
55373;BME280;41249;47.838;16.490;2023-04-09T05:42:42;99999.34;;;-1.19;83.65
55373;BME280;41249;47.838;16.490;2023-04-09T05:45:08;99996.34;;;-1.17;83.58
55373;BME280;41249;47.838;16.490;2023-04-09T05:47:35;99998.66;;;-1.11;83.66
55373;BME280;41249;47.838;16.490;2023-04-09T05:50:02;100004.50;;;-1.03;83.49
55373;BME280;41249;47.838;16.490;2023-04-09T05:52:29;100009.34;;;-1.00;83.44
55373;BME280;41249;47.838;16.490;2023-04-09T05:54:56;100002.69;;;-0.94;83.58
55373;BME280;41249;47.838;16.490;2023-04-09T05:57:22;100015.41;;;-0.90;83.28
55373;BME280;41249;47.838;16.490;2023-04-09T05:59:49;100007.94;;;-0.84;83.08
55373;BME280;41249;47.838;16.490;2023-04-09T06:02:15;100008.31;;;-0.77;83.36
55373;BME280;41249;47.838;16.490;2023-04-09T06:04:42;100015.25;;;-0.71;82.95
55373;BME280;41249;47.838;16.490;2023-04-09T06:07:09;100010.22;;;-0.64;82.69
55373;BME280;41249;47.838;16.490;2023-04-09T06:09:36;100015.16;;;-0.66;82.96
55373;BME280;41249;47.838;16.490;2023-04-09T06:12:03;100010.72;;;-0.62;82.17
55373;BME280;41249;47.838;16.490;2023-04-09T06:14:30;100011.69;;;-0.58;82.29
55373;BME280;41249;47.838;16.490;2023-04-09T06:16:58;100016.16;;;-0.62;82.49
55373;BME280;41249;47.838;16.490;2023-04-09T06:19:25;100012.91;;;-0.51;82.34
55373;BME280;41249;47.838;16.490;2023-04-09T06:21:52;100020.16;;;-0.46;82.05
55373;BME280;41249;47.838;16.490;2023-04-09T06:24:18;100024.81;;;-0.47;82.53
55373;BME280;41249;47.838;16.490;2023-04-09T06:26:45;100018.16;;;-0.54;81.83
55373;BME280;41249;47.838;16.490;2023-04-09T06:29:11;100020.59;;;-0.53;82.49
55373;BME280;41249;47.838;16.490;2023-04-09T06:31:38;100017.84;;;-0.39;82.84
55373;BME280;41249;47.838;16.490;2023-04-09T06:34:05;100014.59;;;-0.19;82.67
55373;BME280;41249;47.838;16.490;2023-04-09T06:36:32;100021.00;;;-0.23;82.15
55373;BME280;41249;47.838;16.490;2023-04-09T06:38:59;100027.00;;;-0.35;81.48
55373;BME280;41249;47.838;16.490;2023-04-09T06:41:25;100029.84;;;-0.40;82.54
55373;BME280;41249;47.838;16.490;2023-04-09T06:43:52;100028.81;;;-0.30;82.87
55373;BME280;41249;47.838;16.490;2023-04-09T06:46:19;100035.81;;;-0.16;82.84
55373;BME280;41249;47.838;16.490;2023-04-09T06:48:46;100032.38;;;-0.08;82.14
55373;BME280;41249;47.838;16.490;2023-04-09T06:51:13;100029.28;;;0.07;81.75
55373;BME280;41249;47.838;16.490;2023-04-09T06:53:40;100032.97;;;0.34;81.04
55373;BME280;41249;47.838;16.490;2023-04-09T06:56:07;100039.31;;;0.43;79.47
55373;BME280;41249;47.838;16.490;2023-04-09T06:58:34;100037.81;;;0.37;79.74
55373;BME280;41249;47.838;16.490;2023-04-09T07:01:00;100039.41;;;0.60;79.69
55373;BME280;41249;47.838;16.490;2023-04-09T07:03:28;100040.72;;;0.71;79.36
55373;BME280;41249;47.838;16.490;2023-04-09T07:05:55;100048.28;;;0.74;79.35
55373;BME280;41249;47.838;16.490;2023-04-09T07:08:22;100046.44;;;0.83;78.64
55373;BME280;41249;47.838;16.490;2023-04-09T07:10:49;100046.81;;;0.90;78.25
55373;BME280;41249;47.838;16.490;2023-04-09T07:13:16;100051.00;;;0.96;78.05
55373;BME280;41249;47.838;16.490;2023-04-09T07:15:42;100058.09;;;0.97;78.35
55373;BME280;41249;47.838;16.490;2023-04-09T07:18:09;100055.16;;;0.94;77.70
55373;BME280;41249;47.838;16.490;2023-04-09T07:20:36;100051.28;;;0.86;78.26
55373;BME280;41249;47.838;16.490;2023-04-09T07:23:03;100050.03;;;0.92;78.44
55373;BME280;41249;47.838;16.490;2023-04-09T07:25:29;100049.91;;;0.75;77.87
55373;BME280;41249;47.838;16.490;2023-04-09T07:27:56;100054.00;;;0.86;78.31
55373;BME280;41249;47.838;16.490;2023-04-09T07:30:23;100058.41;;;0.73;78.30
55373;BME280;41249;47.838;16.490;2023-04-09T07:32:49;100060.06;;;1.05;78.35
55373;BME280;41249;47.838;16.490;2023-04-09T07:35:17;100063.50;;;1.28;77.74
55373;BME280;41249;47.838;16.490;2023-04-09T07:37:44;100065.91;;;1.29;77.56
55373;BME280;41249;47.838;16.490;2023-04-09T07:40:11;100063.00;;;1.17;76.91
55373;BME280;41249;47.838;16.490;2023-04-09T07:42:38;100065.59;;;1.22;77.22
55373;BME280;41249;47.838;16.490;2023-04-09T07:45:05;100065.97;;;1.38;77.01
55373;BME280;41249;47.838;16.490;2023-04-09T07:47:32;100070.75;;;1.32;76.55
55373;BME280;41249;47.838;16.490;2023-04-09T07:49:59;100071.28;;;1.52;76.47
55373;BME280;41249;47.838;16.490;2023-04-09T07:52:25;100073.84;;;1.39;76.49
55373;BME280;41249;47.838;16.490;2023-04-09T07:54:52;100065.81;;;1.52;76.94
55373;BME280;41249;47.838;16.490;2023-04-09T07:57:19;100065.34;;;1.49;76.00
55373;BME280;41249;47.838;16.490;2023-04-09T07:59:45;100068.94;;;1.19;76.97
55373;BME280;41249;47.838;16.490;2023-04-09T08:02:12;100077.69;;;1.30;77.22
55373;BME280;41249;47.838;16.490;2023-04-09T08:04:41;100072.03;;;1.26;76.28
55373;BME280;41249;47.838;16.490;2023-04-09T08:07:08;100074.53;;;1.06;76.48
55373;BME280;41249;47.838;16.490;2023-04-09T08:09:35;100079.19;;;1.05;76.75
55373;BME280;41249;47.838;16.490;2023-04-09T08:12:01;100074.97;;;0.99;76.48
55373;BME280;41249;47.838;16.490;2023-04-09T08:14:28;100080.50;;;1.16;76.79
55373;BME280;41249;47.838;16.490;2023-04-09T08:16:55;100071.63;;;1.50;77.40
55373;BME280;41249;47.838;16.490;2023-04-09T08:19:22;100084.06;;;1.99;76.80
55373;BME280;41249;47.838;16.490;2023-04-09T08:21:49;100085.19;;;2.24;75.89
55373;BME280;41249;47.838;16.490;2023-04-09T08:24:15;100083.06;;;2.46;74.90
55373;BME280;41249;47.838;16.490;2023-04-09T08:26:42;100079.19;;;2.64;73.77
55373;BME280;41249;47.838;16.490;2023-04-09T08:29:10;100089.47;;;2.76;74.01
55373;BME280;41249;47.838;16.490;2023-04-09T08:31:38;100090.31;;;2.51;74.50
55373;BME280;41249;47.838;16.490;2023-04-09T08:34:05;100099.69;;;2.15;71.55
55373;BME280;41249;47.838;16.490;2023-04-09T08:36:33;100098.38;;;1.96;73.00
55373;BME280;41249;47.838;16.490;2023-04-09T08:39:01;100097.91;;;1.94;73.70
55373;BME280;41249;47.838;16.490;2023-04-09T08:41:29;100095.81;;;1.99;73.98
55373;BME280;41249;47.838;16.490;2023-04-09T08:43:56;100102.44;;;1.90;74.37
55373;BME280;41249;47.838;16.490;2023-04-09T08:46:25;100103.22;;;1.82;74.68
55373;BME280;41249;47.838;16.490;2023-04-09T08:48:52;100105.16;;;1.90;74.91
55373;BME280;41249;47.838;16.490;2023-04-09T08:51:21;100104.03;;;2.17;74.65
55373;BME280;41249;47.838;16.490;2023-04-09T08:53:55;100105.97;;;2.33;73.86
55373;BME280;41249;47.838;16.490;2023-04-09T08:56:23;100112.56;;;2.49;72.76
55373;BME280;41249;47.838;16.490;2023-04-09T08:58:50;100108.50;;;2.72;72.61
55373;BME280;41249;47.838;16.490;2023-04-09T09:01:24;100101.06;;;2.82;71.33
55373;BME280;41249;47.838;16.490;2023-04-09T09:06:29;100114.47;;;3.21;71.81
55373;BME280;41249;47.838;16.490;2023-04-09T09:09:14;100114.44;;;3.38;71.96
55373;BME280;41249;47.838;16.490;2023-04-09T09:11:46;100120.03;;;3.79;71.60
55373;BME280;41249;47.838;16.490;2023-04-09T09:14:15;100115.78;;;4.11;70.56
55373;BME280;41249;47.838;16.490;2023-04-09T09:21:55;100115.13;;;4.35;71.49
55373;BME280;41249;47.838;16.490;2023-04-09T09:24:22;100108.13;;;4.17;69.55
55373;BME280;41249;47.838;16.490;2023-04-09T09:26:49;100116.97;;;4.43;71.23
55373;BME280;41249;47.838;16.490;2023-04-09T09:29:16;100107.47;;;4.20;67.91
55373;BME280;41249;47.838;16.490;2023-04-09T09:31:47;100120.50;;;3.81;69.49
55373;BME280;41249;47.838;16.490;2023-04-09T09:34:16;100116.31;;;3.75;70.90
55373;BME280;41249;47.838;16.490;2023-04-09T09:36:44;100109.91;;;3.42;70.23
55373;BME280;41249;47.838;16.490;2023-04-09T09:39:12;100113.75;;;3.03;70.00
55373;BME280;41249;47.838;16.490;2023-04-09T09:41:39;100112.84;;;2.82;69.52
55373;BME280;41249;47.838;16.490;2023-04-09T09:44:10;100111.09;;;2.77;70.01
55373;BME280;41249;47.838;16.490;2023-04-09T09:46:40;100110.63;;;3.22;70.85
55373;BME280;41249;47.838;16.490;2023-04-09T09:49:10;100115.63;;;3.20;69.72
55373;BME280;41249;47.838;16.490;2023-04-09T09:51:39;100112.41;;;3.26;68.86
55373;BME280;41249;47.838;16.490;2023-04-09T09:54:06;100105.63;;;3.53;67.98
55373;BME280;41249;47.838;16.490;2023-04-09T09:56:35;100109.44;;;3.69;68.37
55373;BME280;41249;47.838;16.490;2023-04-09T09:59:15;100106.50;;;3.95;68.42
55373;BME280;41249;47.838;16.490;2023-04-09T10:01:45;100103.97;;;4.11;68.01
55373;BME280;41249;47.838;16.490;2023-04-09T10:04:14;100103.78;;;4.16;68.53
55373;BME280;41249;47.838;16.490;2023-04-09T10:06:42;100102.56;;;4.25;67.80
55373;BME280;41249;47.838;16.490;2023-04-09T10:09:10;100108.53;;;4.06;67.63
55373;BME280;41249;47.838;16.490;2023-04-09T10:11:38;100113.78;;;3.99;67.62
55373;BME280;41249;47.838;16.490;2023-04-09T10:14:08;100102.91;;;4.24;68.15
55373;BME280;41249;47.838;16.490;2023-04-09T10:16:35;100096.69;;;4.15;67.51
55373;BME280;41249;47.838;16.490;2023-04-09T10:19:02;100096.59;;;4.02;67.47
55373;BME280;41249;47.838;16.490;2023-04-09T10:21:52;100094.19;;;4.22;66.88
55373;BME280;41249;47.838;16.490;2023-04-09T10:24:20;100092.97;;;4.52;67.25
55373;BME280;41249;47.838;16.490;2023-04-09T10:26:47;100089.50;;;4.01;65.47
55373;BME280;41249;47.838;16.490;2023-04-09T10:29:15;100090.56;;;3.88;64.54
55373;BME280;41249;47.838;16.490;2023-04-09T10:32:04;100094.84;;;3.77;64.82
55373;BME280;41249;47.838;16.490;2023-04-09T10:34:38;100089.50;;;3.52;66.90
55373;BME280;41249;47.838;16.490;2023-04-09T10:37:14;100088.97;;;3.37;66.90
55373;BME280;41249;47.838;16.490;2023-04-09T10:39:46;100085.81;;;3.48;67.06
55373;BME280;41249;47.838;16.490;2023-04-09T10:42:16;100084.16;;;3.84;66.94
55373;BME280;41249;47.838;16.490;2023-04-09T10:44:43;100095.25;;;4.08;66.32
55373;BME280;41249;47.838;16.490;2023-04-09T10:47:10;100089.94;;;3.83;66.62
55373;BME280;41249;47.838;16.490;2023-04-09T10:49:40;100090.28;;;3.81;62.95
55373;BME280;41249;47.838;16.490;2023-04-09T10:52:10;100091.16;;;3.73;64.36
55373;BME280;41249;47.838;16.490;2023-04-09T10:54:40;100095.38;;;3.71;63.45
55373;BME280;41249;47.838;16.490;2023-04-09T10:57:16;100086.69;;;3.60;63.59
55373;BME280;41249;47.838;16.490;2023-04-09T10:59:44;100083.97;;;3.60;64.00
55373;BME280;41249;47.838;16.490;2023-04-09T11:05:30;100087.91;;;3.80;61.99
55373;BME280;41249;47.838;16.490;2023-04-09T11:08:02;100086.16;;;4.17;62.98
55373;BME280;41249;47.838;16.490;2023-04-09T11:10:31;100088.56;;;4.18;63.62
55373;BME280;41249;47.838;16.490;2023-04-09T11:12:58;100086.94;;;4.38;62.88
55373;BME280;41249;47.838;16.490;2023-04-09T11:15:25;100086.00;;;4.34;62.45
55373;BME280;41249;47.838;16.490;2023-04-09T11:17:52;100081.47;;;4.17;62.39
55373;BME280;41249;47.838;16.490;2023-04-09T11:20:22;100087.38;;;4.07;62.26
55373;BME280;41249;47.838;16.490;2023-04-09T11:22:50;100084.19;;;4.38;61.58
55373;BME280;41249;47.838;16.490;2023-04-09T11:25:25;100080.91;;;4.24;60.94
55373;BME280;41249;47.838;16.490;2023-04-09T11:27:52;100083.25;;;4.13;62.55
55373;BME280;41249;47.838;16.490;2023-04-09T11:30:19;100081.72;;;4.24;63.09
55373;BME280;41249;47.838;16.490;2023-04-09T11:32:47;100092.72;;;4.24;63.04
55373;BME280;41249;47.838;16.490;2023-04-09T11:35:16;100074.09;;;4.09;62.36
55373;BME280;41249;47.838;16.490;2023-04-09T11:37:44;100076.50;;;4.11;61.95
55373;BME280;41249;47.838;16.490;2023-04-09T11:40:16;100076.22;;;4.24;62.49
55373;BME280;41249;47.838;16.490;2023-04-09T11:42:44;100082.66;;;4.28;63.19
55373;BME280;41249;47.838;16.490;2023-04-09T11:45:11;100082.53;;;4.25;61.44
55373;BME280;41249;47.838;16.490;2023-04-09T11:47:39;100076.28;;;4.36;62.54
55373;BME280;41249;47.838;16.490;2023-04-09T11:50:10;100085.16;;;4.54;62.23
55373;BME280;41249;47.838;16.490;2023-04-09T11:52:37;100080.44;;;4.87;62.04
55373;BME280;41249;47.838;16.490;2023-04-09T11:55:05;100082.06;;;5.00;62.26
55373;BME280;41249;47.838;16.490;2023-04-09T12:00:07;100088.66;;;4.75;61.07
55373;BME280;41249;47.838;16.490;2023-04-09T12:03:02;100095.16;;;4.58;60.96
55373;BME280;41249;47.838;16.490;2023-04-09T12:05:32;100087.28;;;4.36;60.48
55373;BME280;41249;47.838;16.490;2023-04-09T12:08:00;100092.44;;;4.38;61.34
55373;BME280;41249;47.838;16.490;2023-04-09T12:10:29;100090.03;;;4.69;61.14
55373;BME280;41249;47.838;16.490;2023-04-09T12:13:06;100091.09;;;4.44;58.66
55373;BME280;41249;47.838;16.490;2023-04-09T12:15:36;100097.25;;;4.20;60.30
55373;BME280;41249;47.838;16.490;2023-04-09T12:18:07;100088.13;;;4.49;60.73
55373;BME280;41249;47.838;16.490;2023-04-09T12:20:36;100090.84;;;4.69;60.08
55373;BME280;41249;47.838;16.490;2023-04-09T12:23:05;100088.50;;;5.04;59.51
55373;BME280;41249;47.838;16.490;2023-04-09T12:25:34;100090.31;;;5.00;60.72
55373;BME280;41249;47.838;16.490;2023-04-09T12:28:05;100083.50;;;5.18;60.21
55373;BME280;41249;47.838;16.490;2023-04-09T12:30:33;100085.81;;;5.28;59.86
55373;BME280;41249;47.838;16.490;2023-04-09T12:33:01;100086.03;;;5.60;60.13
55373;BME280;41249;47.838;16.490;2023-04-09T12:35:28;100081.22;;;5.69;59.49
55373;BME280;41249;47.838;16.490;2023-04-09T12:37:55;100085.69;;;5.61;58.75
55373;BME280;41249;47.838;16.490;2023-04-09T12:40:22;100076.84;;;5.56;58.97
55373;BME280;41249;47.838;16.490;2023-04-09T12:42:48;100073.38;;;5.83;59.52
55373;BME280;41249;47.838;16.490;2023-04-09T12:45:17;100071.84;;;5.97;58.41
55373;BME280;41249;47.838;16.490;2023-04-09T12:47:44;100073.59;;;6.30;57.71
55373;BME280;41249;47.838;16.490;2023-04-09T12:50:12;100079.72;;;6.51;58.00
55373;BME280;41249;47.838;16.490;2023-04-09T12:52:40;100077.84;;;6.55;58.54
55373;BME280;41249;47.838;16.490;2023-04-09T12:55:08;100077.22;;;6.46;55.48
55373;BME280;41249;47.838;16.490;2023-04-09T12:57:36;100079.22;;;6.61;57.40
55373;BME280;41249;47.838;16.490;2023-04-09T13:00:03;100078.69;;;6.99;56.49
55373;BME280;41249;47.838;16.490;2023-04-09T13:02:31;100082.31;;;6.59;54.03
55373;BME280;41249;47.838;16.490;2023-04-09T13:04:58;100074.41;;;6.30;53.40
55373;BME280;41249;47.838;16.490;2023-04-09T13:07:25;100071.06;;;5.85;54.91
55373;BME280;41249;47.838;16.490;2023-04-09T13:09:55;100072.34;;;6.27;56.24
55373;BME280;41249;47.838;16.490;2023-04-09T13:12:23;100076.00;;;6.31;56.32
55373;BME280;41249;47.838;16.490;2023-04-09T13:14:52;100066.38;;;6.25;55.82